Time;durP1;ratioP1;P1;durP2;ratioP2;P2;SDS_P1;SDS_P2;PMS_P1;PMS_P2;Temp;Humidity;BMP_temperature;BMP_pressure;BME280_temperature;BME280_humidity;BME280_pressure;Samples;Min_cycle;Max_cycle;Signal;HPM_P1;HPM_P2
2023/03/25 00:00:19;;;;;;;2.65;1.20;;;;;;;18.74;44.35;98641.22;4410573;32;33943;-64
2023/03/25 00:02:49;;;;;;;2.08;1.50;;;;;;;18.92;44.22;98648.06;4406453;32;33674;-64
2023/03/25 00:05:18;;;;;;;3.12;1.40;;;;;;;18.81;44.53;98652.09;4412148;32;35666;-62
2023/03/25 00:07:49;;;;;;;8.98;1.75;;;;;;;18.79;44.39;98655.03;4408300;32;34497;-62
2023/03/25 00:10:17;;;;;;;2.53;1.00;;;;;;;18.53;44.78;98652.03;4411636;32;33533;-64
2023/03/25 00:12:44;;;;;;;2.25;1.67;;;;;;;18.58;44.86;98649.56;4413312;32;35081;-62
2023/03/25 00:15:12;;;;;;;2.30;1.27;;;;;;;18.84;44.20;98651.72;4412284;32;33960;-61
2023/03/25 00:17:41;;;;;;;1.85;1.33;;;;;;;18.56;44.90;98654.34;4414259;32;32132;-62
2023/03/25 00:20:10;;;;;;;1.90;1.00;;;;;;;18.51;45.12;98652.19;4416169;32;35084;-63
2023/03/25 00:22:43;;;;;;;2.78;1.52;;;;;;;18.25;45.78;98665.47;4417168;32;33751;-61
2023/03/25 00:25:16;;;;;;;4.53;0.88;;;;;;;18.60;45.04;98653.75;4415739;32;32489;-61
2023/03/25 00:27:46;;;;;;;2.12;1.08;;;;;;;18.47;45.27;98652.78;4418324;32;34507;-62
2023/03/25 00:30:15;;;;;;;2.08;1.23;;;;;;;18.34;45.37;98656.19;4405211;32;33965;-61
2023/03/25 00:32:48;;;;;;;1.92;0.93;;;;;;;17.85;46.77;98659.56;4403752;32;34902;-62
2023/03/25 00:35:18;;;;;;;4.18;0.93;;;;;;;17.90;46.54;98654.41;4416318;32;33979;-62
2023/03/25 00:37:56;;;;;;;1.52;0.98;;;;;;;17.90;46.68;98652.53;4417182;32;32468;-65
2023/03/25 00:40:29;;;;;;;2.72;1.25;;;;;;;18.23;46.00;98654.78;4415717;32;33832;-62
2023/03/25 00:42:57;;;;;;;5.05;1.60;;;;;;;18.11;46.47;98650.94;4417271;32;35452;-63
2023/03/25 00:45:24;;;;;;;1.65;0.85;;;;;;;17.80;47.38;98651.13;4416221;32;33715;-63
2023/03/25 00:47:52;;;;;;;1.33;1.12;;;;;;;17.99;46.97;98663.25;4410875;32;33574;-63
2023/03/25 00:50:20;;;;;;;2.67;1.42;;;;;;;18.13;46.47;98648.84;4418461;32;32617;-63
2023/03/25 00:52:48;;;;;;;2.60;1.08;;;;;;;18.18;46.30;98656.41;4416926;32;35261;-62
2023/03/25 00:55:16;;;;;;;1.02;0.90;;;;;;;18.11;46.41;98653.63;4413797;32;33800;-62
2023/03/25 00:57:43;;;;;;;1.05;0.82;;;;;;;17.72;47.46;98654.75;4415170;32;34322;-67
2023/03/25 01:00:14;;;;;;;1.27;0.85;;;;;;;17.28;48.45;98649.31;4418673;32;34003;-63
2023/03/25 01:02:42;;;;;;;2.22;0.82;;;;;;;17.56;47.99;98655.78;4412552;32;33711;-62
2023/03/25 01:05:10;;;;;;;0.62;0.62;;;;;;;17.43;48.49;98650.16;4418011;32;35408;-62
2023/03/25 01:07:39;;;;;;;1.75;0.77;;;;;;;17.46;48.41;98639.84;4416455;32;32352;-62
2023/03/25 01:10:07;;;;;;;1.58;1.10;;;;;;;17.53;48.28;98650.75;4418704;32;35008;-63
2023/03/25 01:12:35;;;;;;;1.35;0.90;;;;;;;17.26;48.97;98654.06;4415693;32;32559;-64
2023/03/25 01:15:03;;;;;;;1.45;0.85;;;;;;;17.35;48.91;98656.50;4416587;32;33795;-61
2023/03/25 01:17:30;;;;;;;1.33;0.77;;;;;;;16.92;50.78;98656.22;4416692;32;33266;-67
2023/03/25 01:19:58;;;;;;;1.60;0.98;;;;;;;16.53;52.48;98665.28;4417090;32;34595;-64
2023/03/25 01:22:26;;;;;;;1.45;0.85;;;;;;;16.53;53.03;98664.41;4415047;32;33958;-65
2023/03/25 01:24:54;;;;;;;1.27;0.82;;;;;;;16.95;52.02;98666.69;4415476;32;34982;-62
2023/03/25 01:27:23;;;;;;;1.45;1.20;;;;;;;16.82;52.77;98668.28;4417810;32;33557;-62
2023/03/25 01:29:53;;;;;;;1.37;0.82;;;;;;;16.62;53.38;98671.44;4416207;32;35568;-62
2023/03/25 01:32:20;;;;;;;1.37;0.95;;;;;;;16.78;53.10;98665.09;4414750;32;33717;-63
2023/03/25 01:34:48;;;;;;;1.58;1.20;;;;;;;16.17;55.11;98674.91;4417327;32;32631;-63
2023/03/25 01:37:17;;;;;;;2.72;1.35;;;;;;;16.90;53.16;98679.03;4416622;32;33383;-63
2023/03/25 01:39:44;;;;;;;5.07;1.15;;;;;;;16.36;54.64;98679.03;4418128;32;34060;-62
2023/03/25 01:42:12;;;;;;;2.10;1.40;;;;;;;16.77;53.76;98687.75;4415599;32;34690;-63
2023/03/25 01:44:39;;;;;;;1.70;1.25;;;;;;;16.55;54.50;98683.97;4414508;32;33608;-62
2023/03/25 01:47:07;;;;;;;1.65;1.08;;;;;;;16.88;53.69;98684.63;4417498;32;32928;-64
2023/03/25 01:49:39;;;;;;;3.15;1.10;;;;;;;16.90;53.63;98685.28;4414793;32;33576;-65
2023/03/25 01:52:12;;;;;;;2.60;1.10;;;;;;;16.89;53.78;98688.19;4402901;32;36025;-65
2023/03/25 01:54:39;;;;;;;1.45;1.05;;;;;;;16.54;54.61;98690.41;4400450;32;34951;-63
2023/03/25 01:57:09;;;;;;;1.27;1.17;;;;;;;16.48;54.80;98691.97;4400875;32;32642;-65
2023/03/25 01:59:37;;;;;;;1.77;1.40;;;;;;;17.11;53.12;98678.34;4412276;32;34956;-62
2023/03/25 02:02:07;;;;;;;1.37;1.00;;;;;;;16.07;56.68;98688.63;4416266;32;32752;-62
2023/03/25 02:04:57;;;;;;;1.52;1.20;;;;;;;16.26;56.59;98696.28;4398525;32;32797;-64
2023/03/25 02:07:32;;;;;;;1.58;1.42;;;;;;;15.84;58.23;98699.34;4403153;32;33274;-63
2023/03/25 02:10:08;;;;;;;2.45;1.92;;;;;;;16.08;57.58;98698.41;4402429;32;33201;-63
2023/03/25 02:12:35;;;;;;;2.67;1.83;;;;;;;15.79;59.21;98688.22;4412546;32;33852;-63
2023/03/25 02:15:06;;;;;;;1.55;0.90;;;;;;;15.25;61.45;98680.75;4415148;32;35375;-62
2023/03/25 02:17:39;;;;;;;2.17;1.33;;;;;;;15.51;61.07;98696.72;4411240;32;32891;-62
2023/03/25 02:20:29;;;;;;;3.40;1.10;;;;;;;15.33;60.88;98688.81;4394943;32;33614;-65
2023/03/25 02:23:06;;;;;;;3.30;1.02;;;;;;;15.27;61.81;98688.66;4412608;32;32870;-66
2023/03/25 02:25:53;;;;;;;1.90;1.25;;;;;;;15.44;61.03;98689.47;4404163;32;33838;-65
2023/03/25 02:28:35;;;;;;;1.05;0.82;;;;;;;15.51;60.62;98691.31;4417639;32;31720;-62
2023/03/25 02:31:28;;;;;;;0.90;0.75;;;;;;;15.32;61.52;98680.91;4414079;32;37249;-62
2023/03/25 02:34:21;;;;;;;1.40;0.95;;;;;;;15.32;61.17;98678.22;4416279;32;35034;-62
2023/03/25 02:37:17;;;;;;;2.15;0.80;;;;;;;15.03;62.09;98670.66;4415393;32;31966;-61
2023/03/25 02:40:09;;;;;;;3.10;0.82;;;;;;;15.79;59.47;98666.63;4401581;32;32947;-62
2023/03/25 02:42:47;;;;;;;0.65;0.65;;;;;;;15.45;60.31;98667.75;4409023;32;33669;-61
2023/03/25 02:45:24;;;;;;;1.75;0.93;;;;;;;15.37;60.25;98663.19;4415350;32;34015;-61
2023/03/25 02:47:55;;;;;;;0.62;0.60;;;;;;;15.44;59.80;98665.19;4401711;32;33867;-60
2023/03/25 02:50:44;;;;;;;0.85;0.75;;;;;;;15.06;61.04;98663.09;4400778;32;33344;-61
2023/03/25 02:53:19;;;;;;;0.98;0.75;;;;;;;15.23;59.91;98663.06;4417476;32;33678;-62
2023/03/25 02:55:49;;;;;;;1.75;0.82;;;;;;;15.49;59.00;98663.66;4400358;32;35672;-61
2023/03/25 02:58:20;;;;;;;1.30;1.20;;;;;;;14.81;60.75;98667.63;4402414;32;33918;-60
2023/03/25 03:00:49;;;;;;;0.55;0.55;;;;;;;14.51;61.63;98673.63;4400840;32;33300;-61
2023/03/25 03:03:16;;;;;;;0.95;0.68;;;;;;;14.36;62.66;98676.13;4401849;32;32620;-61
2023/03/25 03:05:49;;;;;;;0.90;0.85;;;;;;;14.57;62.22;98676.50;4396591;32;33096;-61
2023/03/25 03:08:45;;;;;;;1.48;0.75;;;;;;;14.63;61.98;98672.31;4398538;32;33587;-63
2023/03/25 03:11:18;;;;;;;0.52;0.50;;;;;;;14.74;62.72;98674.69;4412250;32;33556;-63
2023/03/25 03:13:58;;;;;;;3.03;1.05;;;;;;;14.18;65.15;98670.84;4413742;32;32724;-63
2023/03/25 03:16:50;;;;;;;2.58;1.55;;;;;;;14.43;65.00;98674.44;4408941;32;35192;-62
2023/03/25 03:19:37;;;;;;;1.37;1.00;;;;;;;14.65;65.11;98676.53;4401000;32;34800;-60
2023/03/25 03:22:45;;;;;;;0.98;0.77;;;;;;;14.64;66.05;98685.62;4416335;32;33294;-62
2023/03/25 03:25:31;;;;;;;0.62;0.60;;;;;;;14.25;68.06;98689.87;4414276;32;34650;-61
2023/03/25 03:28:06;;;;;;;;;;;;;;;14.03;68.84;98684.09;4410610;32;34038;-61
2023/03/25 03:30:45;;;;;;;2.45;1.10;;;;;;;14.44;67.60;98685.06;4416158;32;34484;-60
2023/03/25 03:33:32;;;;;;;1.33;1.20;;;;;;;13.78;70.74;98690.37;4410442;32;34707;-63
2023/03/25 03:36:04;;;;;;;3.15;2.00;;;;;;;14.18;68.89;98687.00;4405932;32;33612;-60
2023/03/25 03:38:37;;;;;;;1.25;0.95;;;;;;;14.15;69.10;98685.47;4404937;32;33876;-61
2023/03/25 03:41:09;;;;;;;2.12;1.27;;;;;;;13.95;69.89;98697.50;4401494;32;32362;-65
2023/03/25 03:43:45;;;;;;;1.65;1.05;;;;;;;14.15;69.16;98695.38;4405749;32;33428;-61
2023/03/25 03:46:19;;;;;;;1.17;0.90;;;;;;;14.44;68.29;98701.22;4403889;32;33577;-62
2023/03/25 03:48:51;;;;;;;0.93;0.88;;;;;;;14.43;68.39;98704.91;4405238;32;33982;-62
2023/03/25 03:51:24;;;;;;;3.62;1.40;;;;;;;14.54;67.70;98703.78;4403320;32;33638;-63
2023/03/25 03:54:13;;;;;;;0.70;0.70;;;;;;;15.10;65.64;98714.78;4403640;32;34966;-61
2023/03/25 03:56:45;;;;;;;1.75;1.30;;;;;;;14.59;67.46;98714.06;4417597;32;31400;-60
2023/03/25 03:59:20;;;;;;;3.72;1.92;;;;;;;15.16;65.37;98724.88;4403375;32;32493;-60
2023/03/25 04:01:52;;;;;;;1.20;0.85;;;;;;;15.22;65.06;98728.78;4415371;32;33980;-64
2023/03/25 04:04:30;;;;;;;1.90;0.90;;;;;;;15.18;65.12;98730.09;4405070;32;33635;-62
2023/03/25 04:07:19;;;;;;;1.45;0.85;;;;;;;15.02;65.54;98729.06;4404797;32;33803;-63
2023/03/25 04:10:14;;;;;;;0.57;0.57;;;;;;;14.98;65.66;98732.28;4395316;32;35274;-62
2023/03/25 04:12:45;;;;;;;1.55;1.15;;;;;;;14.92;65.60;98733.78;4401343;32;36712;-60
2023/03/25 04:15:13;;;;;;;1.20;1.10;;;;;;;14.68;66.83;98724.69;4403518;32;32156;-62
2023/03/25 04:17:41;;;;;;;1.25;0.95;;;;;;;15.18;64.99;98739.03;4414230;32;34833;-62
2023/03/25 04:20:13;;;;;;;2.17;0.77;;;;;;;15.10;65.32;98742.56;4416427;32;33774;-62
2023/03/25 04:22:44;;;;;;;1.85;1.40;;;;;;;15.16;65.02;98746.44;4404657;32;35441;-61
2023/03/25 04:25:12;;;;;;;1.45;1.00;;;;;;;15.36;64.10;98741.56;4415811;32;33195;-60
2023/03/25 04:27:47;;;;;;;0.90;0.68;;;;;;;14.64;66.31;98736.78;4418402;32;33810;-61
2023/03/25 04:30:18;;;;;;;2.90;1.25;;;;;;;15.07;65.19;98751.00;4415565;32;33792;-62
2023/03/25 04:32:46;;;;;;;1.73;0.93;;;;;;;15.28;64.31;98744.25;4417778;32;33107;-62
2023/03/25 04:35:15;;;;;;;1.73;1.35;;;;;;;15.33;63.90;98748.12;4416930;32;31771;-66
2023/03/25 04:37:47;;;;;;;0.77;0.68;;;;;;;15.11;64.41;98746.09;4419156;32;33680;-62
2023/03/25 04:40:17;;;;;;;1.45;1.30;;;;;;;15.17;63.89;98753.53;4415184;32;33842;-61
2023/03/25 04:42:45;;;;;;;3.33;1.00;;;;;;;15.33;63.38;98760.75;4417041;32;34373;-61
2023/03/25 04:45:15;;;;;;;1.10;0.95;;;;;;;15.33;63.09;98758.91;4416729;32;34128;-66
2023/03/25 04:47:45;;;;;;;1.95;1.20;;;;;;;15.61;62.35;98764.78;4410554;32;33945;-62
2023/03/25 04:50:26;;;;;;;1.08;0.82;;;;;;;15.01;63.51;98762.44;4397903;32;36005;-63
2023/03/25 04:52:56;;;;;;;0.73;0.55;;;;;;;15.41;62.09;98771.56;4411743;32;33887;-61
2023/03/25 04:55:24;;;;;;;0.50;0.50;;;;;;;15.55;60.91;98772.72;4416642;32;32702;-62
2023/03/25 04:57:53;;;;;;;1.48;0.95;;;;;;;15.29;61.79;98771.03;4417462;32;34002;-65
2023/03/25 05:00:23;;;;;;;1.27;0.88;;;;;;;15.46;60.94;98769.19;4416037;32;35020;-64
2023/03/25 05:02:53;;;;;;;2.62;1.25;;;;;;;15.26;61.76;98779.47;4414171;32;33716;-62
2023/03/25 05:05:23;;;;;;;1.25;0.85;;;;;;;15.44;60.92;98784.72;4417172;32;32090;-61
2023/03/25 05:07:52;;;;;;;0.75;0.52;;;;;;;14.93;61.98;98777.72;4415486;32;33401;-62
2023/03/25 05:10:22;;;;;;;0.73;0.52;;;;;;;15.03;62.02;98783.84;4417290;32;32700;-62
2023/03/25 05:12:57;;;;;;;0.52;0.52;;;;;;;14.99;61.89;98790.53;4414334;32;34564;-62
2023/03/25 05:15:25;;;;;;;0.52;0.52;;;;;;;14.96;62.04;98789.06;4415116;32;34487;-62
2023/03/25 05:17:53;;;;;;;2.12;0.70;;;;;;;14.93;62.12;98793.91;4416954;32;33711;-67
2023/03/25 05:20:21;;;;;;;1.25;0.65;;;;;;;14.90;61.25;98801.31;4417867;32;35210;-66
2023/03/25 05:22:52;;;;;;;0.60;0.52;;;;;;;15.26;60.23;98795.66;4414192;32;34118;-66
2023/03/25 05:25:21;;;;;;;3.03;0.77;;;;;;;14.80;61.57;98805.16;4417085;32;33257;-61
2023/03/25 05:27:48;;;;;;;0.47;0.47;;;;;;;15.12;59.21;98802.56;4415974;32;35664;-62
2023/03/25 05:30:16;;;;;;;0.45;0.40;;;;;;;14.67;60.55;98797.56;4415644;32;34610;-62
2023/03/25 05:32:44;;;;;;;0.80;0.68;;;;;;;15.02;59.94;98801.00;4415702;32;33710;-62
2023/03/25 05:35:12;;;;;;;1.65;1.10;;;;;;;15.03;59.73;98805.41;4412288;32;33287;-61
2023/03/25 05:37:39;;;;;;;0.70;0.60;;;;;;;14.65;60.58;98805.81;4416459;32;32400;-65
2023/03/25 05:40:08;;;;;;;1.15;0.50;;;;;;;14.98;59.86;98796.97;4416365;32;35489;-64
2023/03/25 05:42:45;;;;;;;1.65;0.68;;;;;;;15.04;59.29;98791.75;4417672;32;33858;-65
2023/03/25 05:45:15;;;;;;;0.40;0.40;;;;;;;14.99;59.12;98794.13;4415962;32;33429;-65
2023/03/25 05:47:43;;;;;;;0.55;0.50;;;;;;;15.09;58.35;98796.66;4414272;32;33523;-62
2023/03/25 05:50:11;;;;;;;0.43;0.43;;;;;;;15.09;58.97;98802.03;4417574;32;34001;-64
2023/03/25 05:52:42;;;;;;;0.98;0.52;;;;;;;14.99;59.06;98802.19;4413659;32;33865;-62
2023/03/25 05:55:14;;;;;;;1.35;0.55;;;;;;;15.03;58.89;98808.94;4417331;32;34583;-61
2023/03/25 05:57:42;;;;;;;0.40;0.40;;;;;;;15.08;58.70;98808.41;4413558;32;33610;-62
2023/03/25 06:00:11;;;;;;;0.55;0.32;;;;;;;15.06;58.52;98803.22;4414562;32;33976;-61
2023/03/25 06:02:41;;;;;;;0.40;0.40;;;;;;;15.33;58.00;98812.00;4414350;32;32833;-63
2023/03/25 06:05:12;;;;;;;0.50;0.50;;;;;;;15.44;57.33;98819.75;4415152;32;32486;-65
2023/03/25 06:07:42;;;;;;;1.23;0.62;;;;;;;15.41;57.52;98827.31;4414232;32;34824;-64
2023/03/25 06:10:09;;;;;;;0.60;0.50;;;;;;;15.21;58.09;98827.63;4415149;32;34205;-64
2023/03/25 06:12:38;;;;;;;0.70;0.50;;;;;;;15.11;58.23;98827.78;4416801;32;34924;-66
2023/03/25 06:15:08;;;;;;;0.55;0.40;;;;;;;15.13;58.01;98825.78;4416714;32;33517;-64
2023/03/25 06:17:38;;;;;;;0.45;0.45;;;;;;;15.12;58.31;98817.88;4414709;32;34591;-68
2023/03/25 06:20:11;;;;;;;1.55;1.25;;;;;;;15.33;57.66;98815.53;4414867;32;33591;-63
2023/03/25 06:22:41;;;;;;;0.40;0.40;;;;;;;15.39;57.47;98819.41;4416016;32;33962;-66
2023/03/25 06:25:12;;;;;;;1.65;0.95;;;;;;;14.96;59.05;98825.91;4406225;32;34212;-64
2023/03/25 06:27:40;;;;;;;1.40;0.77;;;;;;;15.23;58.29;98825.63;4413757;32;33868;-64
2023/03/25 06:30:11;;;;;;;0.93;0.65;;;;;;;15.41;57.61;98822.78;4415385;32;34036;-66
2023/03/25 06:32:39;;;;;;;1.10;0.55;;;;;;;15.24;57.96;98823.78;4415722;32;34706;-64
2023/03/25 06:35:08;;;;;;;0.45;0.40;;;;;;;15.53;57.20;98824.12;4402027;32;33477;-63
2023/03/25 06:37:36;;;;;;;1.37;0.85;;;;;;;15.17;58.15;98833.53;4415237;32;33731;-63
2023/03/25 06:40:06;;;;;;;1.15;1.00;;;;;;;15.36;57.60;98831.38;4417055;32;33567;-66
2023/03/25 06:42:33;;;;;;;0.47;0.47;;;;;;;15.26;57.58;98828.00;4415584;32;35243;-64
2023/03/25 06:45:03;;;;;;;0.60;0.57;;;;;;;15.54;57.34;98846.56;4415875;32;35193;-63
2023/03/25 06:47:33;;;;;;;0.52;0.45;;;;;;;15.37;57.75;98843.81;4403560;32;33740;-64
2023/03/25 06:50:00;;;;;;;0.37;0.30;;;;;;;15.23;58.35;98832.88;4417358;32;32850;-65
2023/03/25 06:52:28;;;;;;;0.35;0.30;;;;;;;15.36;58.05;98835.91;4412501;32;34916;-63
2023/03/25 06:54:56;;;;;;;0.88;0.60;;;;;;;15.08;58.70;98833.50;4416668;32;34484;-64
2023/03/25 06:57:23;;;;;;;1.02;0.77;;;;;;;14.91;59.75;98829.94;4401860;32;33701;-63
2023/03/25 06:59:51;;;;;;;0.50;0.50;;;;;;;15.46;58.37;98833.91;4416521;32;35017;-63
2023/03/25 07:02:18;;;;;;;1.55;0.93;;;;;;;15.31;58.84;98839.12;4412648;32;35037;-64
2023/03/25 07:04:46;;;;;;;0.75;0.65;;;;;;;15.61;57.65;98842.16;4416913;32;34090;-66
2023/03/25 07:07:13;;;;;;;0.60;0.57;;;;;;;15.64;57.55;98843.69;4418430;32;32445;-64
2023/03/25 07:09:41;;;;;;;0.52;0.52;;;;;;;15.44;58.56;98844.03;4418542;32;35390;-63
2023/03/25 07:12:08;;;;;;;1.20;1.05;;;;;;;15.21;59.30;98840.28;4419837;32;34703;-64
2023/03/25 07:14:36;;;;;;;1.77;0.95;;;;;;;15.61;57.79;98847.56;4417369;32;33554;-64
2023/03/25 07:17:03;;;;;;;1.40;0.82;;;;;;;15.35;59.32;98853.97;4408093;32;33662;-66
2023/03/25 07:19:31;;;;;;;1.00;0.88;;;;;;;15.44;58.33;98857.50;4409188;32;35326;-63
2023/03/25 07:21:58;;;;;;;0.77;0.62;;;;;;;15.87;57.33;98852.81;4409553;32;33530;-63
2023/03/25 07:24:26;;;;;;;3.90;1.10;;;;;;;15.26;59.45;98859.50;4415831;32;33718;-63
2023/03/25 07:26:54;;;;;;;1.35;0.77;;;;;;;15.89;57.07;98848.09;4409153;32;33972;-63
2023/03/25 07:29:22;;;;;;;0.55;0.52;;;;;;;15.57;58.19;98859.72;4409610;32;32501;-63
2023/03/25 07:31:50;;;;;;;1.80;1.67;;;;;;;15.76;56.20;98872.03;4416754;32;33748;-64
2023/03/25 07:34:17;;;;;;;0.93;0.85;;;;;;;15.50;56.31;98872.16;4417039;32;33217;-63
2023/03/25 07:36:44;;;;;;;2.90;1.30;;;;;;;15.40;56.34;98872.31;4414770;32;35344;-64
2023/03/25 07:39:12;;;;;;;1.08;0.62;;;;;;;15.91;55.15;98864.94;4412065;32;34017;-63
2023/03/25 07:41:41;;;;;;;1.85;1.25;;;;;;;15.92;54.58;98854.97;4416700;32;33901;-64
2023/03/25 07:44:09;;;;;;;1.02;0.82;;;;;;;16.16;54.49;98859.50;4417116;32;33152;-68
2023/03/25 07:46:37;;;;;;;0.60;0.60;;;;;;;16.19;54.55;98854.59;4415543;32;33639;-63
2023/03/25 07:49:04;;;;;;;1.12;0.80;;;;;;;16.54;53.06;98861.44;4416060;32;33739;-64
2023/03/25 07:51:33;;;;;;;1.77;1.30;;;;;;;16.92;51.17;98861.62;4414937;32;33781;-63
2023/03/25 07:54:01;;;;;;;0.80;0.60;;;;;;;16.68;52.81;98850.91;4416988;32;32034;-64
2023/03/25 07:56:32;;;;;;;1.02;0.57;;;;;;;17.90;50.52;98854.72;4419022;32;33163;-64
2023/03/25 07:59:00;;;;;;;1.80;1.00;;;;;;;19.64;46.01;98839.66;4413708;32;34166;-63
2023/03/25 08:01:27;;;;;;;3.00;1.27;;;;;;;20.88;42.14;98846.16;4410338;32;33472;-66
2023/03/25 08:03:56;;;;;;;1.20;0.85;;;;;;;21.02;41.78;98851.66;4413889;32;32929;-64
2023/03/25 08:06:23;;;;;;;1.17;0.90;;;;;;;20.67;42.11;98859.88;4410600;32;33646;-66
2023/03/25 08:08:51;;;;;;;0.88;0.57;;;;;;;19.62;44.44;98858.00;4413241;32;33451;-65
2023/03/25 08:11:18;;;;;;;2.05;1.08;;;;;;;19.05;45.13;98859.69;4417413;32;34057;-63
2023/03/25 08:13:46;;;;;;;2.62;1.35;;;;;;;18.96;45.80;98860.84;4411454;32;32253;-63
2023/03/25 08:16:14;;;;;;;0.85;0.80;;;;;;;18.32;46.28;98858.69;4415973;32;33652;-64
2023/03/25 08:18:43;;;;;;;1.23;0.73;;;;;;;18.89;45.96;98854.50;4414962;32;34093;-64
2023/03/25 08:21:12;;;;;;;3.10;1.17;;;;;;;18.63;45.54;98858.50;4411770;32;32485;-67
2023/03/25 08:23:39;;;;;;;4.18;1.58;;;;;;;19.71;43.71;98855.00;4418567;32;34156;-64
2023/03/25 08:26:09;;;;;;;1.85;1.33;;;;;;;20.24;42.48;98855.41;4418431;32;33776;-64
2023/03/25 08:28:37;;;;;;;1.02;0.73;;;;;;;20.12;43.49;98864.28;4415954;32;32790;-66
2023/03/25 08:31:07;;;;;;;1.55;1.12;;;;;;;20.53;41.42;98852.69;4418272;32;33866;-63
2023/03/25 08:33:39;;;;;;;1.12;0.68;;;;;;;19.74;42.44;98845.59;4414850;32;33348;-65
2023/03/25 08:36:12;;;;;;;2.40;1.15;;;;;;;20.13;43.12;98847.81;4414857;32;32486;-64
2023/03/25 08:38:40;;;;;;;1.35;0.95;;;;;;;20.15;42.64;98834.84;4413280;32;33907;-64
2023/03/25 08:41:07;;;;;;;1.67;1.08;;;;;;;19.67;43.36;98831.97;4404345;32;33351;-62
2023/03/25 08:43:35;;;;;;;0.77;0.55;;;;;;;19.72;44.00;98836.84;4411907;32;32188;-63
2023/03/25 08:46:03;;;;;;;2.03;0.75;;;;;;;19.40;44.00;98836.28;4416518;32;32514;-63
2023/03/25 08:48:30;;;;;;;9.52;1.02;;;;;;;19.36;43.20;98834.13;4413541;32;33961;-64
2023/03/25 08:50:58;;;;;;;1.60;1.12;;;;;;;19.76;42.81;98843.53;4410259;32;35416;-63
2023/03/25 08:53:25;;;;;;;2.42;1.27;;;;;;;19.79;42.86;98843.16;4414330;32;33314;-63
2023/03/25 08:55:55;;;;;;;1.58;1.00;;;;;;;19.46;43.82;98848.25;4412950;32;33367;-63
2023/03/25 08:58:23;;;;;;;1.40;0.85;;;;;;;19.96;42.08;98838.25;4416644;32;34157;-64
2023/03/25 09:00:54;;;;;;;2.20;1.37;;;;;;;19.94;42.32;98843.91;4413022;32;32866;-65
2023/03/25 09:03:23;;;;;;;3.10;1.20;;;;;;;19.97;42.99;98846.22;4411302;32;33465;-63
2023/03/25 09:05:51;;;;;;;1.75;1.20;;;;;;;20.41;41.19;98831.47;4407442;32;34874;-62
2023/03/25 09:08:19;;;;;;;2.80;0.98;;;;;;;20.21;41.32;98834.06;4404739;32;35190;-63
2023/03/25 09:10:47;;;;;;;1.75;0.73;;;;;;;19.38;43.38;98841.06;4416149;32;33489;-63
2023/03/25 09:13:15;;;;;;;2.25;1.55;;;;;;;19.20;42.64;98843.41;4416413;32;33580;-63
2023/03/25 09:15:44;;;;;;;3.30;1.20;;;;;;;19.48;40.56;98840.75;4413779;32;36152;-65
2023/03/25 09:18:11;;;;;;;1.92;1.25;;;;;;;19.83;39.92;98843.59;4417523;32;35266;-63
2023/03/25 09:20:40;;;;;;;1.37;0.85;;;;;;;19.75;40.51;98845.41;4403199;32;33711;-64
2023/03/25 09:23:08;;;;;;;3.55;2.00;;;;;;;20.32;39.94;98850.84;4414007;32;32102;-64
2023/03/25 09:25:36;;;;;;;1.75;1.10;;;;;;;20.53;39.51;98858.97;4413431;32;34108;-63
2023/03/25 09:28:04;;;;;;;2.12;1.33;;;;;;;19.87;40.42;98848.47;4419836;32;33804;-63
2023/03/25 09:30:31;;;;;;;3.33;1.08;;;;;;;19.92;40.23;98850.56;4416380;32;34981;-64
2023/03/25 09:32:59;;;;;;;1.27;0.73;;;;;;;20.67;38.06;98833.53;4418960;32;34183;-63
2023/03/25 09:35:27;;;;;;;1.75;0.90;;;;;;;19.72;39.86;98844.97;4415788;32;32438;-63
2023/03/25 09:37:55;;;;;;;2.15;1.08;;;;;;;20.10;39.39;98847.38;4418263;32;33606;-63
2023/03/25 09:40:23;;;;;;;1.62;1.00;;;;;;;20.79;38.79;98841.13;4412961;32;33888;-66
2023/03/25 09:43:06;;;;;;;4.53;1.45;;;;;;;20.90;38.80;98843.25;4421291;32;32484;-63
2023/03/25 09:45:38;;;;;;;1.35;0.88;;;;;;;20.96;37.45;98847.03;4404778;32;34714;-62
2023/03/25 09:48:23;;;;;;;3.90;1.08;;;;;;;20.53;38.05;98844.53;4404737;32;34662;-63
2023/03/25 09:50:50;;;;;;;7.82;1.42;;;;;;;20.40;37.88;98850.69;4420388;32;33892;-63
2023/03/25 09:53:36;;;;;;;3.15;1.70;;;;;;;20.11;38.96;98849.03;4419115;32;34462;-63
2023/03/25 09:56:13;;;;;;;2.75;1.33;;;;;;;20.82;38.07;98849.69;4417151;32;34903;-63
2023/03/25 09:58:43;;;;;;;2.10;1.20;;;;;;;20.71;37.90;98842.13;4419971;32;32189;-63
2023/03/25 10:01:44;;;;;;;3.40;1.23;;;;;;;20.32;38.85;98854.44;4397613;32;33737;-63
2023/03/25 10:04:33;;;;;;;2.78;1.27;;;;;;;19.75;39.57;98848.13;4411367;32;33240;-63
2023/03/25 10:07:22;;;;;;;3.33;1.75;;;;;;;20.16;37.90;98857.44;4418598;32;32668;-62
2023/03/25 10:10:04;;;;;;;2.67;1.35;;;;;;;19.95;38.80;98852.88;4404879;32;33853;-64
2023/03/25 10:12:45;;;;;;;2.65;1.65;;;;;;;20.02;38.81;98870.91;4400619;32;33700;-63
2023/03/25 10:15:40;;;;;;;1.75;1.20;;;;;;;20.34;39.20;98856.94;4419123;32;33553;-63
2023/03/25 10:18:17;;;;;;;7.47;1.33;;;;;;;19.99;39.55;98862.31;4405412;32;34853;-63
2023/03/25 10:20:53;;;;;;;3.10;1.30;;;;;;;19.96;39.50;98857.28;4412704;32;34855;-65
2023/03/25 10:23:40;;;;;;;2.55;1.10;;;;;;;19.87;39.98;98851.16;4403683;32;35121;-63
2023/03/25 10:26:22;;;;;;;2.92;1.40;;;;;;;19.96;39.97;98851.84;4418025;32;34119;-63
2023/03/25 10:29:05;;;;;;;3.17;1.08;;;;;;;19.83;40.15;98840.88;4419450;32;33653;-63
2023/03/25 10:31:36;;;;;;;4.05;1.80;;;;;;;20.38;38.71;98844.63;4404577;32;33930;-65
2023/03/25 10:34:07;;;;;;;2.15;1.25;;;;;;;20.51;38.87;98849.28;4401651;32;33875;-63
2023/03/25 10:36:41;;;;;;;2.20;1.08;;;;;;;20.80;36.84;98849.09;4406968;32;33443;-63
2023/03/25 10:39:13;;;;;;;2.42;1.08;;;;;;;20.81;36.45;98837.16;4404128;32;32788;-62
2023/03/25 10:41:42;;;;;;;2.75;0.82;;;;;;;20.46;37.51;98847.19;4405075;32;34017;-63
2023/03/25 10:44:10;;;;;;;3.30;1.30;;;;;;;20.29;36.26;98843.97;4419543;32;33867;-63
2023/03/25 10:46:51;;;;;;;2.62;1.65;;;;;;;20.19;35.74;98849.75;4418930;32;34779;-63
2023/03/25 10:49:26;;;;;;;2.25;1.23;;;;;;;20.13;36.22;98845.09;4401942;32;33699;-63
2023/03/25 10:51:56;;;;;;;3.05;0.98;;;;;;;20.34;36.04;98852.34;4403292;32;34760;-62
2023/03/25 10:54:28;;;;;;;5.18;1.08;;;;;;;20.11;36.10;98857.19;4420631;32;34687;-63
2023/03/25 10:56:59;;;;;;;2.50;1.17;;;;;;;20.04;36.03;98851.72;4402402;32;33092;-63
2023/03/25 10:59:38;;;;;;;0.95;0.68;;;;;;;19.70;37.37;98858.72;4420675;32;32858;-63
2023/03/25 11:02:18;;;;;;;2.53;1.30;;;;;;;20.22;36.25;98864.78;4420121;32;34065;-64
2023/03/25 11:04:50;;;;;;;0.65;0.52;;;;;;;20.34;36.25;98863.19;4417941;32;36677;-62
2023/03/25 11:07:22;;;;;;;2.10;0.85;;;;;;;20.14;35.59;98864.94;4406794;32;33489;-64
2023/03/25 11:09:50;;;;;;;2.05;1.27;;;;;;;19.42;36.43;98857.78;4416365;32;35056;-63
2023/03/25 11:12:19;;;;;;;0.62;0.43;;;;;;;18.93;37.37;98853.06;4398314;32;35014;-64
2023/03/25 11:15:01;;;;;;;1.90;1.05;;;;;;;19.14;37.15;98861.25;4420562;32;33768;-63
2023/03/25 11:17:28;;;;;;;2.33;0.90;;;;;;;18.93;37.96;98861.22;4416545;32;33412;-66
2023/03/25 11:19:59;;;;;;;3.72;1.65;;;;;;;18.81;37.26;98853.56;4421019;32;32619;-63
2023/03/25 11:22:29;;;;;;;0.52;0.45;;;;;;;19.12;35.29;98862.47;4405371;32;33928;-62
2023/03/25 11:25:05;;;;;;;0.65;0.57;;;;;;;19.34;36.39;98866.91;4412350;32;33739;-65
2023/03/25 11:27:47;;;;;;;3.47;0.93;;;;;;;19.12;36.35;98867.91;4399862;32;31756;-63
2023/03/25 11:30:20;;;;;;;1.37;0.52;;;;;;;18.33;37.88;98879.31;4402273;32;33981;-65
2023/03/25 11:33:12;;;;;;;1.48;1.05;;;;;;;18.56;37.32;98866.56;4413809;32;34867;-63
2023/03/25 11:35:47;;;;;;;2.55;1.00;;;;;;;18.35;37.57;98867.28;4402080;32;35164;-63
2023/03/25 11:38:21;;;;;;;0.75;0.55;;;;;;;18.37;37.66;98867.94;4412447;32;34203;-66
2023/03/25 11:40:53;;;;;;;1.15;0.60;;;;;;;18.38;37.53;98872.31;4411223;32;33854;-64
2023/03/25 11:43:23;;;;;;;1.27;0.68;;;;;;;18.42;37.05;98878.22;4394139;32;32625;-64
2023/03/25 11:45:50;;;;;;;1.45;0.73;;;;;;;18.54;37.09;98874.03;4415150;32;35040;-64
2023/03/25 11:48:21;;;;;;;1.65;0.73;;;;;;;18.43;37.68;98873.66;4391408;32;99146;-64
2023/03/25 11:50:55;;;;;;;0.30;0.30;;;;;;;17.91;37.97;98857.25;4411413;32;33927;-64
2023/03/25 11:53:25;;;;;;;1.90;0.70;;;;;;;18.11;37.94;98848.59;4408119;32;35072;-65
2023/03/25 11:56:10;;;;;;;1.45;0.57;;;;;;;18.01;38.28;98858.81;4397404;32;33451;-64